Time;durP1;ratioP1;P1;durP2;ratioP2;P2;SDS_P1;SDS_P2;PMS_P1;PMS_P2;Temp;Humidity;BMP_temperature;BMP_pressure;BME280_temperature;BME280_humidity;BME280_pressure;Samples;Min_cycle;Max_cycle;Signal;HPM_P1;HPM_P2
2022/01/19 00:01:22;;;;;;;52.30;28.95;;;2.30;84.00;;;;;;5032203;28;20052;-89
2022/01/19 00:03:50;;;;;;;42.92;28.23;;;2.30;84.10;;;;;;5031705;28;20502;-88
2022/01/19 00:06:17;;;;;;;42.30;27.30;;;2.30;84.00;;;;;;5032380;28;20417;-89
2022/01/19 00:08:45;;;;;;;38.45;27.25;;;2.20;84.00;;;;;;5031828;28;20128;-88
2022/01/19 00:11:12;;;;;;;38.63;27.42;;;2.20;84.00;;;;;;5032433;28;20053;-89
2022/01/19 00:13:39;;;;;;;42.55;28.10;;;2.20;84.00;;;;;;5017362;28;20037;-89
2022/01/19 00:16:07;;;;;;;39.78;26.95;;;2.20;84.00;;;;;;5035367;28;20060;-89
2022/01/19 00:18:35;;;;;;;41.42;26.55;;;2.20;84.00;;;;;;5035893;28;20573;-88
2022/01/19 00:21:02;;;;;;;47.75;27.20;;;2.10;84.00;;;;;;5035804;28;20041;-88
2022/01/19 00:23:29;;;;;;;48.85;25.45;;;2.10;84.00;;;;;;5035410;28;20052;-89
2022/01/19 00:25:56;;;;;;;37.58;25.27;;;2.10;84.00;;;;;;5035853;28;20049;-88
2022/01/19 00:28:24;;;;;;;42.05;27.55;;;2.10;84.00;;;;;;5035362;28;20410;-88
2022/01/19 00:30:51;;;;;;;45.67;27.48;;;2.10;84.00;;;;;;5034861;28;20042;-88
2022/01/19 00:33:19;;;;;;;36.13;25.23;;;2.10;84.00;;;;;;5035653;28;20053;-89
2022/01/19 00:35:48;;;;;;;51.33;26.73;;;2.10;84.00;;;;;;5035602;28;20456;-90
2022/01/19 00:38:16;;;;;;;37.80;25.80;;;2.00;84.00;;;;;;5035378;28;20045;-89
2022/01/19 00:40:44;;;;;;;35.55;26.00;;;2.10;84.00;;;;;;5035483;28;20513;-89
2022/01/19 00:43:14;;;;;;;37.08;24.90;;;2.00;84.00;;;;;;5034747;28;20045;-89
2022/01/19 00:45:42;;;;;;;46.97;25.77;;;2.00;84.00;;;;;;5035090;28;20103;-89
2022/01/19 00:48:25;;;;;;;40.00;26.95;;;2.00;84.00;;;;;;5035304;28;20045;-88
2022/01/19 00:50:52;;;;;;;35.35;25.35;;;2.00;84.00;;;;;;5035149;28;20045;-89
2022/01/19 00:53:19;;;;;;;36.97;25.08;;;2.00;84.10;;;;;;5034920;28;20080;-89
2022/01/19 00:55:46;;;;;;;39.25;25.60;;;2.00;84.10;;;;;;5035310;28;20494;-89
2022/01/19 00:58:13;;;;;;;37.47;24.75;;;2.00;84.10;;;;;;5034253;28;20424;-88
2022/01/19 01:00:40;;;;;;;35.95;24.83;;;2.00;84.10;;;;;;5034808;28;20105;-88
2022/01/19 01:03:08;;;;;;;37.38;25.67;;;2.00;84.10;;;;;;5034991;28;20404;-89
2022/01/19 01:05:35;;;;;;;34.03;24.15;;;2.00;84.10;;;;;;5035010;28;20079;-88
2022/01/19 01:08:03;;;;;;;35.55;24.85;;;2.00;84.10;;;;;;5034402;28;20445;-88
2022/01/19 01:10:31;;;;;;;37.15;25.90;;;2.00;84.10;;;;;;5035021;28;20502;-88
2022/01/19 01:13:17;;;;;;;39.10;26.30;;;2.00;84.10;;;;;;5034173;28;20056;-88
2022/01/19 01:18:20;;;;;;;36.97;26.17;;;2.00;84.20;;;;;;5034859;28;20099;-88
2022/01/19 01:20:52;;;;;;;38.83;26.02;;;2.00;84.20;;;;;;5034688;28;20468;-88
2022/01/19 01:23:24;;;;;;;39.22;25.95;;;2.00;84.20;;;;;;5034633;28;20045;-89
2022/01/19 01:25:52;;;;;;;37.40;25.67;;;2.00;84.20;;;;;;5033713;28;20128;-89
2022/01/19 01:28:19;;;;;;;45.53;27.48;;;2.00;84.30;;;;;;5033802;28;20053;-89
2022/01/19 01:30:46;;;;;;;43.33;26.85;;;2.10;84.30;;;;;;5034511;28;20494;-90
2022/01/19 01:33:13;;;;;;;38.03;25.45;;;2.10;84.30;;;;;;5034435;28;20513;-88
2022/01/19 01:35:41;;;;;;;38.28;26.17;;;2.00;84.30;;;;;;5034046;28;20045;-89
2022/01/19 01:38:09;;;;;;;39.30;25.75;;;2.00;84.30;;;;;;5034520;28;20502;-89
2022/01/19 01:40:47;;;;;;;37.22;25.92;;;2.00;84.30;;;;;;5019381;28;20103;-88
2022/01/19 01:43:14;;;;;;;39.50;26.75;;;2.10;84.30;;;;;;5033558;28;20060;-88
2022/01/19 01:45:45;;;;;;;41.00;27.88;;;2.10;84.30;;;;;;5034277;28;20418;-89
2022/01/19 01:48:16;;;;;;;51.42;26.63;;;2.10;84.30;;;;;;5034005;28;20045;-89
2022/01/19 01:53:32;;;;;;;46.03;27.20;;;2.10;84.40;;;;;;5034053;28;20041;-89
2022/01/19 01:56:06;;;;;;;41.97;26.40;;;2.10;84.40;;;;;;5034178;28;20050;-89
2022/01/19 01:58:36;;;;;;;43.83;27.13;;;2.10;84.40;;;;;;5033998;28;20053;-89
2022/01/19 02:01:05;;;;;;;45.30;27.48;;;2.10;84.40;;;;;;5033298;28;20056;-88
2022/01/19 02:03:38;;;;;;;48.70;27.90;;;2.10;84.50;;;;;;5033778;28;20525;-89
2022/01/19 02:15:48;;;;;;;41.55;27.20;;;2.10;84.50;;;;;;5033876;28;20045;-90
2022/01/19 02:23:34;;;;;;;43.55;26.35;;;2.20;84.60;;;;;;5021462;28;20049;-91
2022/01/19 02:26:07;;;;;;;42.53;26.30;;;2.20;84.60;;;;;;5020788;28;20053;-90
2022/01/19 02:36:30;;;;;;;40.50;25.83;;;2.20;84.60;;;;;;5011621;28;20042;-89
2022/01/19 02:42:40;;;;;;;36.10;25.92;;;2.20;84.70;;;;;;5007049;28;20054;-89
2022/01/19 02:50:46;;;;;;;37.38;26.45;;;2.20;84.70;;;;;;4944412;29;20047;-90
2022/01/19 02:53:13;;;;;;;37.13;25.63;;;2.20;84.70;;;;;;4938141;28;20051;-90
2022/01/19 02:55:40;;;;;;;35.30;25.75;;;2.20;84.70;;;;;;4933938;29;20119;-89
2022/01/19 02:58:07;;;;;;;37.60;26.27;;;2.20;84.70;;;;;;4943942;28;20064;-90
2022/01/19 03:08:57;;;;;;;33.97;26.20;;;2.20;84.70;;;;;;4972725;28;20050;-90
2022/01/19 03:11:24;;;;;;;34.00;25.92;;;2.20;84.70;;;;;;4956042;28;20039;-89
2022/01/19 03:13:51;;;;;;;33.80;25.48;;;2.20;84.70;;;;;;4972158;28;20049;-89
2022/01/19 03:16:20;;;;;;;32.20;24.95;;;2.20;84.70;;;;;;4971185;28;20154;-88
2022/01/19 03:18:48;;;;;;;31.40;23.73;;;2.20;84.70;;;;;;4971407;28;20059;-90
2022/01/19 03:21:18;;;;;;;36.40;25.83;;;2.20;84.70;;;;;;4993886;28;20049;-89
2022/01/19 03:23:45;;;;;;;32.47;25.13;;;2.20;84.70;;;;;;5032866;28;20513;-89
2022/01/19 03:26:12;;;;;;;30.63;24.98;;;2.20;84.70;;;;;;5032854;28;20052;-89
2022/01/19 03:28:39;;;;;;;33.25;25.55;;;2.20;84.70;;;;;;5017298;28;20052;-89
2022/01/19 03:31:07;;;;;;;32.28;24.75;;;2.20;84.70;;;;;;5027869;28;20125;-89
2022/01/19 03:33:34;;;;;;;33.13;24.85;;;2.20;84.70;;;;;;5032395;28;20049;-90
2022/01/19 03:36:02;;;;;;;31.90;24.60;;;2.20;84.70;;;;;;5032665;28;20053;-89
2022/01/19 03:38:29;;;;;;;33.80;25.00;;;2.20;84.70;;;;;;5032682;28;20052;-90
2022/01/19 03:40:56;;;;;;;31.60;25.30;;;2.20;84.70;;;;;;5032723;28;20510;-89
2022/01/19 03:43:23;;;;;;;32.63;24.42;;;2.20;84.70;;;;;;5032432;28;20406;-89
2022/01/19 03:45:52;;;;;;;31.58;24.40;;;2.30;84.70;;;;;;5031483;28;20057;-89
2022/01/19 03:50:57;;;;;;;29.65;23.20;;;2.20;84.80;;;;;;5036428;28;20541;-89
2022/01/19 03:53:24;;;;;;;33.83;24.88;;;2.30;84.80;;;;;;5036351;28;20045;-90
2022/01/19 03:55:51;;;;;;;30.75;24.50;;;2.30;84.80;;;;;;5036529;28;20041;-90
2022/01/19 03:58:18;;;;;;;33.92;25.77;;;2.30;84.80;;;;;;5035513;28;20128;-89
2022/01/19 04:00:45;;;;;;;31.67;24.50;;;2.20;84.80;;;;;;5035780;28;20053;-87
2022/01/19 04:03:17;;;;;;;31.60;24.27;;;2.30;84.80;;;;;;5036185;28;20069;-89
2022/01/19 04:05:58;;;;;;;30.65;24.33;;;2.30;84.80;;;;;;5036113;28;20049;-88
2022/01/19 04:08:25;;;;;;;30.75;24.70;;;2.30;84.80;;;;;;5067743;28;20045;-90
2022/01/19 04:10:53;;;;;;;30.38;23.85;;;2.30;84.80;;;;;;5036118;28;20052;-89
2022/01/19 04:16:13;;;;;;;31.17;24.45;;;2.30;84.80;;;;;;5032407;28;20045;-89
2022/01/19 04:18:40;;;;;;;32.05;25.20;;;2.30;84.80;;;;;;5033549;28;20057;-89
2022/01/19 04:21:07;;;;;;;30.23;24.55;;;2.30;84.80;;;;;;5033603;28;20149;-88
2022/01/19 04:23:34;;;;;;;30.48;24.73;;;2.30;84.80;;;;;;5033492;28;20071;-89
2022/01/19 04:26:03;;;;;;;29.98;25.10;;;2.30;84.80;;;;;;5033722;28;21565;-90
2022/01/19 04:28:30;;;;;;;33.85;24.60;;;2.30;84.80;;;;;;5033645;28;20045;-89
2022/01/19 04:30:57;;;;;;;30.80;25.70;;;2.40;84.80;;;;;;5032545;28;20049;-88
2022/01/19 04:33:26;;;;;;;33.38;26.48;;;2.30;84.80;;;;;;5033510;28;20095;-89
2022/01/19 04:36:06;;;;;;;32.58;25.35;;;2.30;84.80;;;;;;5033374;28;20053;-89
2022/01/19 04:44:06;;;;;;;31.83;25.25;;;2.30;84.80;;;;;;5033396;28;20056;-89
2022/01/19 04:54:47;;;;;;;33.75;26.00;;;2.40;84.80;;;;;;5035306;28;20052;-89
2022/01/19 05:05:28;;;;;;;30.23;25.33;;;2.30;84.80;;;;;;5035119;28;20041;-87
2022/01/19 05:08:02;;;;;;;30.67;26.00;;;2.40;84.80;;;;;;5066957;28;20056;-89
2022/01/19 05:13:26;;;;;;;32.78;26.10;;;2.40;84.90;;;;;;5033831;28;20057;-88
2022/01/19 05:15:53;;;;;;;32.67;26.33;;;2.40;84.90;;;;;;5032189;28;20504;-88
2022/01/19 05:18:20;;;;;;;31.83;25.30;;;2.40;84.90;;;;;;5034814;28;20050;-88
2022/01/19 05:20:47;;;;;;;32.45;26.00;;;2.40;84.90;;;;;;5034564;28;20049;-88
2022/01/19 05:23:16;;;;;;;37.20;28.30;;;2.40;84.90;;;;;;5034588;28;20402;-88
2022/01/19 05:25:45;;;;;;;33.50;26.73;;;2.40;84.90;;;;;;5066639;28;20076;-88
2022/01/19 05:28:12;;;;;;;34.35;25.75;;;2.40;84.90;;;;;;5033379;28;20053;-88
2022/01/19 05:30:40;;;;;;;32.35;25.67;;;2.40;84.90;;;;;;5034372;28;20049;-88
2022/01/19 05:33:07;;;;;;;31.00;24.88;;;2.40;84.90;;;;;;5034447;28;20549;-87
2022/01/19 05:35:34;;;;;;;35.15;26.88;;;2.40;84.90;;;;;;5034341;28;20063;-87
2022/01/19 05:38:01;;;;;;;32.47;25.67;;;2.40;84.90;;;;;;5034647;28;20046;-88
2022/01/19 05:40:28;;;;;;;30.85;25.10;;;2.40;84.90;;;;;;5034247;28;20465;-88
2022/01/19 05:42:55;;;;;;;33.22;26.65;;;2.40;84.90;;;;;;5033231;28;20083;-88
2022/01/19 05:45:24;;;;;;;33.50;25.90;;;2.40;84.90;;;;;;5034251;28;20045;-87
2022/01/19 05:47:51;;;;;;;33.10;25.20;;;2.40;85.00;;;;;;5034245;28;20085;-87
2022/01/19 05:50:18;;;;;;;33.13;25.42;;;2.40;85.00;;;;;;5033051;28;20049;-87
2022/01/19 05:52:45;;;;;;;30.98;25.52;;;2.40;84.90;;;;;;5034241;28;20152;-87
2022/01/19 05:55:13;;;;;;;34.28;25.85;;;2.50;85.00;;;;;;5033270;28;20072;-87
2022/01/19 05:57:40;;;;;;;32.17;25.33;;;2.50;85.00;;;;;;5033288;28;20046;-87
2022/01/19 06:00:08;;;;;;;32.35;24.95;;;2.50;85.00;;;;;;5032667;28;20577;-87
2022/01/19 06:02:36;;;;;;;34.08;26.13;;;2.50;85.00;;;;;;5033981;28;20056;-87
2022/01/19 06:05:04;;;;;;;36.33;26.67;;;2.50;85.00;;;;;;5034000;28;20506;-87
2022/01/19 06:07:40;;;;;;;36.15;26.92;;;2.50;85.00;;;;;;5034053;28;20068;-87
2022/01/19 06:10:10;;;;;;;34.45;26.02;;;2.50;85.00;;;;;;5028660;28;20057;-86
2022/01/19 06:12:38;;;;;;;35.20;26.80;;;2.50;85.00;;;;;;5034338;28;20045;-87
2022/01/19 06:15:07;;;;;;;35.78;28.40;;;2.50;85.00;;;;;;5032523;28;20053;-87
2022/01/19 06:17:34;;;;;;;36.80;28.30;;;2.50;85.00;;;;;;5033661;28;20052;-86
2022/01/19 06:20:01;;;;;;;34.40;26.00;;;2.50;85.00;;;;;;5033557;28;20505;-86
2022/01/19 06:22:28;;;;;;;35.35;27.30;;;2.50;85.10;;;;;;5033701;28;20054;-86
2022/01/19 06:24:57;;;;;;;39.30;28.33;;;2.50;85.10;;;;;;5032783;28;20045;-86
2022/01/19 06:27:24;;;;;;;38.85;28.20;;;2.50;85.10;;;;;;5033168;28;20051;-86
2022/01/19 06:29:51;;;;;;;36.28;27.10;;;2.50;85.10;;;;;;5033515;28;20052;-86
2022/01/19 06:32:18;;;;;;;43.50;29.15;;;2.50;85.10;;;;;;5033475;28;20045;-86
2022/01/19 06:34:45;;;;;;;38.88;27.35;;;2.60;85.10;;;;;;5033497;28;20051;-86
2022/01/19 06:37:12;;;;;;;39.67;28.55;;;2.50;85.10;;;;;;5032400;28;20049;-86
2022/01/19 06:39:40;;;;;;;42.10;30.23;;;2.60;85.20;;;;;;5034915;28;20045;-86
2022/01/19 06:42:07;;;;;;;43.42;30.10;;;2.60;85.20;;;;;;5033109;28;20049;-86
2022/01/19 06:44:34;;;;;;;44.08;29.88;;;2.60;85.20;;;;;;5033267;28;22279;-86
2022/01/19 06:47:01;;;;;;;43.08;29.35;;;2.60;85.30;;;;;;5033374;28;20052;-85
2022/01/19 06:49:28;;;;;;;40.88;29.67;;;2.60;85.20;;;;;;5033198;28;20049;-86
2022/01/19 06:51:55;;;;;;;46.47;31.45;;;2.60;85.20;;;;;;5032372;28;20491;-85
2022/01/19 06:54:22;;;;;;;50.03;31.23;;;2.60;85.30;;;;;;5032828;28;20041;-86
2022/01/19 06:56:49;;;;;;;44.88;29.90;;;2.70;85.30;;;;;;5032968;28;20052;-86
2022/01/19 06:59:16;;;;;;;43.55;29.92;;;2.60;85.30;;;;;;5032998;28;20052;-86
2022/01/19 07:01:43;;;;;;;52.85;31.88;;;2.70;85.30;;;;;;5032997;28;20078;-86
2022/01/19 07:04:14;;;;;;;44.83;30.65;;;2.70;85.40;;;;;;5032314;28;20041;-86
2022/01/19 07:06:41;;;;;;;49.88;30.40;;;2.70;85.40;;;;;;5032908;28;20049;-86
2022/01/19 07:09:09;;;;;;;47.33;30.52;;;2.70;85.40;;;;;;5032453;28;20305;-85
2022/01/19 07:11:37;;;;;;;50.97;31.60;;;2.80;85.40;;;;;;5032947;28;20041;-85
2022/01/19 07:14:05;;;;;;;47.13;30.58;;;2.80;85.50;;;;;;5031650;28;20041;-86
2022/01/19 07:16:32;;;;;;;47.50;30.10;;;2.80;85.50;;;;;;5030068;28;20054;-86
2022/01/19 07:18:59;;;;;;;45.30;30.83;;;2.80;85.50;;;;;;5031496;28;20037;-86
2022/01/19 07:21:26;;;;;;;51.55;31.63;;;2.80;85.50;;;;;;5031872;28;20103;-86
2022/01/19 07:23:53;;;;;;;49.83;31.45;;;2.80;85.50;;;;;;5034024;28;20037;-86
2022/01/19 07:26:21;;;;;;;48.35;32.33;;;2.80;85.60;;;;;;5036498;28;20049;-85
2022/01/19 07:28:48;;;;;;;49.17;31.17;;;2.90;85.60;;;;;;5036365;28;20045;-85
2022/01/19 07:31:15;;;;;;;46.95;31.17;;;2.90;85.60;;;;;;5035667;28;20053;-86
2022/01/19 07:33:43;;;;;;;50.42;31.65;;;2.90;85.60;;;;;;5037706;28;20510;-86
2022/01/19 07:36:09;;;;;;;53.25;33.20;;;2.90;85.60;;;;;;5036118;28;20063;-86
2022/01/19 07:38:36;;;;;;;60.42;33.42;;;2.90;85.60;;;;;;5035957;28;20038;-86
2022/01/19 07:41:05;;;;;;;52.65;32.13;;;2.90;85.60;;;;;;5036399;28;20050;-85
2022/01/19 07:43:32;;;;;;;52.65;32.88;;;2.90;85.60;;;;;;5034689;28;20778;-85
2022/01/19 07:45:59;;;;;;;56.65;33.00;;;2.90;85.70;;;;;;5035527;28;20057;-85
2022/01/19 07:48:27;;;;;;;55.38;33.40;;;2.90;85.60;;;;;;5036149;28;20042;-85
2022/01/19 07:50:54;;;;;;;51.55;32.70;;;2.90;85.70;;;;;;5035728;28;20049;-85
2022/01/19 07:53:21;;;;;;;54.55;32.90;;;2.90;85.70;;;;;;5035818;28;20042;-86
2022/01/19 07:55:49;;;;;;;59.85;34.63;;;3.00;85.70;;;;;;5035915;28;20047;-85
2022/01/19 07:58:16;;;;;;;57.03;34.55;;;3.00;85.70;;;;;;5034771;28;20046;-85
2022/01/19 08:00:43;;;;;;;62.53;34.30;;;3.00;85.70;;;;;;5036229;28;20060;-86
2022/01/19 08:03:11;;;;;;;62.75;36.20;;;3.00;85.70;;;;;;5035911;28;20107;-86
2022/01/19 08:05:38;;;;;;;64.68;36.70;;;3.00;85.70;;;;;;5035429;28;20052;-86
2022/01/19 08:08:05;;;;;;;63.15;37.35;;;3.00;85.80;;;;;;5035605;28;20041;-86
2022/01/19 08:10:33;;;;;;;65.50;37.03;;;3.10;85.80;;;;;;5035965;28;20049;-86
2022/01/19 08:13:03;;;;;;;61.72;35.30;;;3.10;85.80;;;;;;5034551;28;20069;-86
2022/01/19 08:15:30;;;;;;;66.22;37.63;;;3.10;85.80;;;;;;5035543;28;20049;-86
2022/01/19 08:17:58;;;;;;;60.30;36.17;;;3.10;85.80;;;;;;5035650;28;20049;-86
2022/01/19 08:20:25;;;;;;;64.25;37.72;;;3.10;85.80;;;;;;5036317;28;20055;-87
2022/01/19 08:22:52;;;;;;;54.47;34.90;;;3.20;85.80;;;;;;5035487;28;20049;-87
2022/01/19 08:25:19;;;;;;;63.22;37.03;;;3.20;85.80;;;;;;5034718;28;20386;-86
2022/01/19 08:27:46;;;;;;;64.28;38.70;;;3.20;85.80;;;;;;5035484;28;20051;-86
2022/01/19 08:30:14;;;;;;;60.65;36.75;;;3.20;85.90;;;;;;5035735;28;20049;-86
2022/01/19 08:32:42;;;;;;;59.90;36.03;;;3.20;85.90;;;;;;5035729;28;20067;-87
2022/01/19 08:35:09;;;;;;;58.05;36.28;;;3.20;85.90;;;;;;5035040;28;20045;-85
2022/01/19 08:37:36;;;;;;;63.50;37.03;;;3.20;85.90;;;;;;5035388;28;20045;-87
2022/01/19 08:40:06;;;;;;;61.67;36.53;;;3.20;85.90;;;;;;5034787;28;20052;-86
2022/01/19 08:42:33;;;;;;;57.72;34.90;;;3.20;85.90;;;;;;5035459;28;20060;-87
2022/01/19 08:45:07;;;;;;;69.00;38.13;;;3.20;85.90;;;;;;5035379;28;20451;-88
2022/01/19 08:47:36;;;;;;;63.20;37.55;;;3.30;85.90;;;;;;5035392;28;20100;-86
2022/01/19 08:50:07;;;;;;;54.55;33.95;;;3.30;85.90;;;;;;5036716;28;20540;-87
2022/01/19 08:52:34;;;;;;;58.42;35.85;;;3.30;85.90;;;;;;5035012;28;20061;-86
2022/01/19 08:55:03;;;;;;;69.60;37.15;;;3.30;85.90;;;;;;5034648;28;20069;-86
2022/01/19 08:57:30;;;;;;;57.47;35.38;;;3.40;85.90;;;;;;5035011;28;20045;-87
2022/01/19 08:59:57;;;;;;;57.97;37.58;;;3.30;85.90;;;;;;5035174;28;20037;-86
2022/01/19 09:02:24;;;;;;;56.22;35.42;;;3.40;85.90;;;;;;5035106;28;20529;-86
2022/01/19 09:04:51;;;;;;;68.00;38.05;;;3.40;85.90;;;;;;5034732;28;20103;-87
2022/01/19 09:07:20;;;;;;;58.53;37.40;;;3.40;86.00;;;;;;5034146;28;20045;-87
2022/01/19 09:09:47;;;;;;;59.88;36.63;;;3.40;86.00;;;;;;5034530;28;20091;-86
2022/01/19 09:12:14;;;;;;;66.90;36.63;;;3.50;86.00;;;;;;5034868;28;20073;-86
2022/01/19 09:14:41;;;;;;;63.83;37.60;;;3.40;85.90;;;;;;5034874;28;20044;-87
2022/01/19 09:17:09;;;;;;;64.05;37.70;;;3.40;86.00;;;;;;5034866;28;20045;-87
2022/01/19 09:19:39;;;;;;;75.40;38.45;;;3.50;86.00;;;;;;5033523;28;20037;-87
2022/01/19 09:22:09;;;;;;;72.47;40.08;;;3.40;85.90;;;;;;5033969;28;20049;-87
2022/01/19 09:24:39;;;;;;;60.47;36.30;;;3.50;85.90;;;;;;5034647;28;20045;-87
2022/01/19 09:27:08;;;;;;;69.25;39.20;;;3.50;86.00;;;;;;5034611;28;20514;-87
2022/01/19 09:29:42;;;;;;;60.20;34.03;;;3.50;86.00;;;;;;5035902;28;20136;-87
2022/01/19 09:32:11;;;;;;;55.95;35.03;;;3.50;86.00;;;;;;5034797;28;20052;-87
2022/01/19 09:34:42;;;;;;;64.40;36.45;;;3.50;86.00;;;;;;5034247;28;20069;-87
2022/01/19 09:37:09;;;;;;;59.65;36.90;;;3.50;86.00;;;;;;5029692;28;20054;-86
2022/01/19 09:39:37;;;;;;;58.17;35.33;;;3.50;86.00;;;;;;5034400;28;20056;-87
2022/01/19 09:42:04;;;;;;;64.35;36.35;;;3.50;86.00;;;;;;5034454;28;20053;-87
2022/01/19 09:44:32;;;;;;;60.25;35.50;;;3.60;86.00;;;;;;5034268;28;20038;-87
2022/01/19 09:46:59;;;;;;;57.42;36.25;;;3.60;86.00;;;;;;5033364;28;20045;-87
2022/01/19 09:49:26;;;;;;;63.13;36.20;;;3.60;86.00;;;;;;5034134;28;20045;-86
2022/01/19 09:51:55;;;;;;;57.15;36.15;;;3.60;86.00;;;;;;5031693;28;20422;-87
2022/01/19 09:54:25;;;;;;;55.63;34.45;;;3.60;86.00;;;;;;5034172;28;20047;-86
2022/01/19 09:56:53;;;;;;;53.88;33.53;;;3.60;86.00;;;;;;5033967;28;20408;-86
2022/01/19 09:59:22;;;;;;;66.32;35.15;;;3.60;86.00;;;;;;5034166;28;20037;-87
2022/01/19 10:02:01;;;;;;;58.88;35.25;;;3.70;86.00;;;;;;5033993;28;20049;-86
2022/01/19 10:04:30;;;;;;;62.78;35.35;;;3.70;86.00;;;;;;5033481;28;20069;-87
2022/01/19 10:07:19;;;;;;;60.47;35.58;;;3.70;86.00;;;;;;5069698;28;20401;-88
2022/01/19 10:09:57;;;;;;;63.80;36.22;;;3.70;86.00;;;;;;5068681;28;20045;-85
2022/01/19 10:18:16;;;;;;;61.17;35.85;;;3.80;85.90;;;;;;5066943;28;20051;-85
2022/01/19 10:20:45;;;;;;;58.60;34.92;;;3.80;86.00;;;;;;5065641;28;20444;-85
2022/01/19 10:23:44;;;;;;;64.72;34.92;;;3.80;86.00;;;;;;5067387;28;20044;-85
2022/01/19 10:26:15;;;;;;;61.40;33.70;;;3.80;86.00;;;;;;5055775;28;20055;-85
2022/01/19 10:29:02;;;;;;;61.28;35.55;;;3.90;86.00;;;;;;5051843;28;20049;-85
2022/01/19 10:31:31;;;;;;;62.13;35.78;;;3.90;86.00;;;;;;5065855;28;20053;-86
2022/01/19 10:34:19;;;;;;;62.38;36.00;;;3.90;86.00;;;;;;5068867;28;20052;-85
2022/01/19 10:36:48;;;;;;;66.53;35.03;;;3.90;86.00;;;;;;5068239;28;20420;-85
2022/01/19 10:39:18;;;;;;;56.97;33.80;;;3.90;86.00;;;;;;5066882;28;20055;-85
2022/01/19 10:41:57;;;;;;;54.13;33.20;;;3.90;86.00;;;;;;5066870;28;20064;-85
2022/01/19 10:44:46;;;;;;;62.53;35.45;;;4.00;86.00;;;;;;5065286;28;20049;-85
2022/01/19 10:47:43;;;;;;;62.88;36.63;;;4.00;86.00;;;;;;5066420;28;20136;-85
2022/01/19 10:50:22;;;;;;;60.33;33.67;;;4.00;85.90;;;;;;5065650;28;20417;-85
2022/01/19 10:52:49;;;;;;;62.33;33.90;;;4.00;85.90;;;;;;5051881;28;20049;-85
2022/01/19 10:55:19;;;;;;;57.17;34.17;;;4.00;85.90;;;;;;5066826;28;20055;-86
2022/01/19 10:57:48;;;;;;;71.15;38.80;;;4.00;85.90;;;;;;5067692;28;20044;-85
2022/01/19 11:00:17;;;;;;;58.70;34.33;;;4.00;85.90;;;;;;5066526;28;20059;-85
2022/01/19 11:02:47;;;;;;;63.53;34.85;;;4.00;85.90;;;;;;5066123;28;20048;-85
2022/01/19 11:05:17;;;;;;;58.80;34.53;;;4.00;85.90;;;;;;5066222;28;20055;-85
2022/01/19 11:07:44;;;;;;;58.38;33.75;;;4.00;85.90;;;;;;5051007;28;20041;-86
2022/01/19 11:10:22;;;;;;;58.15;34.50;;;4.10;85.90;;;;;;5068385;28;20045;-85
2022/01/19 11:12:53;;;;;;;63.90;34.78;;;4.10;85.90;;;;;;5095638;28;20471;-85
2022/01/19 11:15:20;;;;;;;60.70;34.30;;;4.10;85.90;;;;;;5065739;28;20045;-85
2022/01/19 11:17:48;;;;;;;61.80;34.63;;;4.10;85.90;;;;;;5056419;28;20064;-85
2022/01/19 11:20:20;;;;;;;63.33;35.90;;;4.20;85.90;;;;;;5052911;28;20068;-84
2022/01/19 11:23:15;;;;;;;67.00;36.33;;;4.10;85.90;;;;;;5051527;28;20053;-85
2022/01/19 11:26:00;;;;;;;61.58;37.00;;;4.20;85.90;;;;;;5037210;28;20077;-85
2022/01/19 11:28:32;;;;;;;68.15;36.67;;;4.20;85.90;;;;;;5051239;28;20049;-84
2022/01/19 11:31:01;;;;;;;68.90;37.80;;;4.20;85.90;;;;;;5054424;28;20049;-85
2022/01/19 11:33:30;;;;;;;73.38;37.97;;;4.20;85.90;;;;;;5051146;28;20041;-85
2022/01/19 11:36:04;;;;;;;68.28;37.35;;;4.30;86.00;;;;;;5052596;28;20513;-85
2022/01/19 11:38:45;;;;;;;78.50;38.90;;;4.30;86.00;;;;;;5052445;28;20041;-86
2022/01/19 11:41:15;;;;;;;72.38;38.55;;;4.30;86.00;;;;;;5052652;28;20121;-85
2022/01/19 11:43:52;;;;;;;71.78;37.33;;;4.40;86.10;;;;;;5037132;28;20056;-86
2022/01/19 11:46:33;;;;;;;76.18;38.40;;;4.40;86.10;;;;;;5050493;28;20053;-85
2022/01/19 11:49:03;;;;;;;81.07;39.55;;;4.40;86.10;;;;;;5053412;28;20135;-85
2022/01/19 11:51:31;;;;;;;93.90;41.45;;;4.50;86.20;;;;;;5052181;28;20045;-85
2022/01/19 11:54:23;;;;;;;76.50;38.28;;;4.50;86.20;;;;;;5049374;28;20044;-85
2022/01/19 11:56:59;;;;;;;83.78;41.10;;;4.50;86.20;;;;;;5045122;28;20072;-85
2022/01/19 11:59:30;;;;;;;88.03;40.35;;;4.60;86.20;;;;;;5051403;28;20047;-85
2022/01/19 12:02:32;;;;;;;73.45;37.72;;;4.60;86.20;;;;;;5050407;28;20067;-85
2022/01/19 12:05:21;;;;;;;69.55;36.50;;;4.70;86.30;;;;;;5040725;28;20056;-85
2022/01/19 12:07:57;;;;;;;68.35;35.50;;;4.70;86.20;;;;;;5050575;28;20060;-86
2022/01/19 12:10:31;;;;;;;69.70;35.47;;;4.70;86.20;;;;;;5052560;28;20075;-84
2022/01/19 12:18:57;;;;;;;67.27;35.53;;;4.90;86.20;;;;;;5053058;28;20045;-85
2022/01/19 12:21:42;;;;;;;61.13;34.15;;;4.90;86.10;;;;;;5051546;28;20053;-85
2022/01/19 12:24:30;;;;;;;60.47;32.45;;;4.90;86.10;;;;;;5051352;28;20052;-85
2022/01/19 12:27:03;;;;;;;67.18;33.95;;;4.90;86.10;;;;;;5050062;28;20478;-85
2022/01/19 12:29:33;;;;;;;65.50;31.98;;;4.90;86.10;;;;;;5050250;28;20047;-85
2022/01/19 12:32:01;;;;;;;61.88;33.47;;;5.00;86.10;;;;;;5051698;28;20044;-85
2022/01/19 12:34:49;;;;;;;56.70;32.20;;;5.00;86.00;;;;;;5051451;28;20049;-85
2022/01/19 12:37:25;;;;;;;52.28;31.58;;;5.00;86.00;;;;;;5049745;28;20049;-86
2022/01/19 12:39:52;;;;;;;60.35;33.13;;;5.00;86.00;;;;;;5053390;28;20053;-85
2022/01/19 12:42:26;;;;;;;58.60;31.17;;;5.10;86.00;;;;;;5049500;28;20056;-82
2022/01/19 12:44:57;;;;;;;50.63;30.88;;;5.10;86.00;;;;;;5051252;28;20045;-85
2022/01/19 12:47:27;;;;;;;55.15;30.98;;;5.10;86.00;;;;;;5051191;28;20045;-86
2022/01/19 12:49:55;;;;;;;57.40;31.23;;;5.20;85.90;;;;;;5049964;28;20045;-85
2022/01/19 12:52:28;;;;;;;55.33;30.10;;;5.20;85.90;;;;;;5052062;28;20135;-85
2022/01/19 12:54:57;;;;;;;49.53;28.88;;;5.20;85.90;;;;;;5051338;28;20055;-85
2022/01/19 12:57:24;;;;;;;50.25;29.48;;;5.20;85.90;;;;;;5050797;28;20420;-85
2022/01/19 12:59:55;;;;;;;53.50;30.02;;;5.20;85.90;;;;;;5050996;28;20083;-85
2022/01/19 13:02:28;;;;;;;46.75;28.77;;;5.30;85.90;;;;;;5049870;28;20124;-85
2022/01/19 13:05:08;;;;;;;49.90;27.93;;;5.30;85.80;;;;;;5050759;28;20045;-85
2022/01/19 13:07:46;;;;;;;50.80;27.15;;;5.30;85.80;;;;;;5050894;28;20057;-85
2022/01/19 13:10:38;;;;;;;46.88;26.38;;;5.40;85.70;;;;;;5049200;28;20098;-85
2022/01/19 13:13:25;;;;;;;54.15;28.75;;;5.40;85.70;;;;;;5052295;28;20095;-85
2022/01/19 13:16:01;;;;;;;52.55;28.73;;;5.40;85.70;;;;;;5050637;28;20044;-85
2022/01/19 13:18:43;;;;;;;44.60;27.98;;;5.40;85.70;;;;;;5050587;28;20102;-86
2022/01/19 13:21:13;;;;;;;46.45;28.27;;;5.50;85.70;;;;;;5049025;28;20052;-85
2022/01/19 13:24:29;;;;;;;49.50;27.38;;;5.50;85.60;;;;;;5050504;28;20433;-86
2022/01/19 13:26:59;;;;;;;44.08;26.92;;;5.50;85.70;;;;;;5049963;28;20042;-86
2022/01/19 13:29:28;;;;;;;39.55;24.90;;;5.50;85.60;;;;;;5049113;28;20037;-85
2022/01/19 13:32:08;;;;;;;40.88;26.50;;;5.60;85.60;;;;;;5050534;28;20055;-86
2022/01/19 13:34:55;;;;;;;44.55;25.50;;;5.60;85.60;;;;;;5050408;28;20080;-85
2022/01/19 13:37:24;;;;;;;45.85;25.95;;;5.70;85.50;;;;;;5048902;28;20051;-86
2022/01/19 13:39:57;;;;;;;43.88;25.70;;;5.70;85.50;;;;;;5051926;28;20049;-85
2022/01/19 13:42:39;;;;;;;39.90;24.13;;;5.70;85.50;;;;;;5050013;28;20509;-85
2022/01/19 13:45:10;;;;;;;38.35;23.25;;;5.70;85.40;;;;;;5050177;28;20049;-85
2022/01/19 13:47:55;;;;;;;43.45;24.35;;;5.80;85.40;;;;;;5050121;28;20049;-85
2022/01/19 13:50:24;;;;;;;40.50;24.30;;;5.80;85.40;;;;;;5050185;28;20441;-86
2022/01/19 13:52:51;;;;;;;45.55;25.50;;;5.80;85.30;;;;;;5050264;28;20037;-85
2022/01/19 13:55:21;;;;;;;39.20;23.48;;;5.80;85.30;;;;;;5051214;28;20049;-85
2022/01/19 13:57:48;;;;;;;40.90;23.35;;;5.90;85.30;;;;;;5051498;28;20051;-85
2022/01/19 14:00:18;;;;;;;36.25;23.90;;;5.90;85.20;;;;;;5048632;28;20049;-86
2022/01/19 14:03:02;;;;;;;36.75;23.02;;;5.90;85.20;;;;;;5050012;28;20509;-85
2022/01/19 14:05:39;;;;;;;41.22;23.50;;;5.90;85.10;;;;;;5049781;28;20053;-85
2022/01/19 14:08:07;;;;;;;36.00;22.88;;;5.90;85.10;;;;;;5048684;28;20047;-85
2022/01/19 14:10:48;;;;;;;43.92;24.30;;;6.00;85.10;;;;;;5049917;28;20085;-85
2022/01/19 14:13:31;;;;;;;42.25;22.52;;;6.00;85.00;;;;;;5048264;28;20056;-86
2022/01/19 14:16:21;;;;;;;38.85;23.27;;;6.00;85.00;;;;;;5050577;28;20045;-85
2022/01/19 14:19:07;;;;;;;37.80;22.85;;;6.00;85.00;;;;;;5051463;28;20525;-85
2022/01/19 14:21:51;;;;;;;34.85;22.25;;;6.00;85.00;;;;;;5049840;28;20049;-85